sensor_id;sensor_type;location;lat;lon;timestamp;temperature;humidity
24408;DHT22;12542;50.924;4.516;2023-03-14T00:01:24;12.40;99.90
24408;DHT22;12542;50.924;4.516;2023-03-14T00:03:50;12.40;99.90
24408;DHT22;12542;50.924;4.516;2023-03-14T00:06:16;12.30;99.90
24408;DHT22;12542;50.924;4.516;2023-03-14T00:08:43;12.50;99.90
24408;DHT22;12542;50.924;4.516;2023-03-14T00:11:12;12.40;99.90
24408;DHT22;12542;50.924;4.516;2023-03-14T00:13:38;12.50;99.90
24408;DHT22;12542;50.924;4.516;2023-03-14T00:16:05;12.20;99.90
24408;DHT22;12542;50.924;4.516;2023-03-14T00:18:32;12.10;99.90
24408;DHT22;12542;50.924;4.516;2023-03-14T00:20:59;12.00;99.90
24408;DHT22;12542;50.924;4.516;2023-03-14T00:23:25;11.90;99.90
24408;DHT22;12542;50.924;4.516;2023-03-14T00:25:51;11.80;99.90
24408;DHT22;12542;50.924;4.516;2023-03-14T00:28:18;11.70;99.90
24408;DHT22;12542;50.924;4.516;2023-03-14T00:30:45;11.60;99.90
24408;DHT22;12542;50.924;4.516;2023-03-14T00:33:11;11.70;99.90
24408;DHT22;12542;50.924;4.516;2023-03-14T00:35:37;11.70;99.90
24408;DHT22;12542;50.924;4.516;2023-03-14T00:41:24;11.80;99.90
24408;DHT22;12542;50.924;4.516;2023-03-14T00:43:51;11.80;99.90
24408;DHT22;12542;50.924;4.516;2023-03-14T00:46:17;11.90;99.90
24408;DHT22;12542;50.924;4.516;2023-03-14T00:48:45;11.80;99.90
24408;DHT22;12542;50.924;4.516;2023-03-14T00:51:11;11.80;99.90
24408;DHT22;12542;50.924;4.516;2023-03-14T00:53:39;11.70;99.90
24408;DHT22;12542;50.924;4.516;2023-03-14T00:56:08;11.70;99.90
24408;DHT22;12542;50.924;4.516;2023-03-14T00:58:34;11.60;99.90
24408;DHT22;12542;50.924;4.516;2023-03-14T01:01:08;11.70;99.90
24408;DHT22;12542;50.924;4.516;2023-03-14T01:03:34;11.40;99.90
24408;DHT22;12542;50.924;4.516;2023-03-14T01:06:27;11.50;99.90
24408;DHT22;12542;50.924;4.516;2023-03-14T01:08:53;11.50;99.90
24408;DHT22;12542;50.924;4.516;2023-03-14T01:11:25;11.40;99.90
24408;DHT22;12542;50.924;4.516;2023-03-14T01:13:52;11.50;99.90
24408;DHT22;12542;50.924;4.516;2023-03-14T01:16:19;11.40;99.90
24408;DHT22;12542;50.924;4.516;2023-03-14T01:18:47;11.40;99.90
24408;DHT22;12542;50.924;4.516;2023-03-14T01:21:18;11.40;99.90
24408;DHT22;12542;50.924;4.516;2023-03-14T01:23:46;11.40;99.90
24408;DHT22;12542;50.924;4.516;2023-03-14T01:26:13;11.50;99.90
24408;DHT22;12542;50.924;4.516;2023-03-14T01:28:39;11.60;99.90
24408;DHT22;12542;50.924;4.516;2023-03-14T01:31:07;11.60;99.90
24408;DHT22;12542;50.924;4.516;2023-03-14T01:33:33;11.70;99.90
24408;DHT22;12542;50.924;4.516;2023-03-14T01:35:59;11.70;99.90
24408;DHT22;12542;50.924;4.516;2023-03-14T01:38:30;11.50;99.90
24408;DHT22;12542;50.924;4.516;2023-03-14T01:40:56;11.50;99.90
24408;DHT22;12542;50.924;4.516;2023-03-14T01:43:22;11.50;99.90
24408;DHT22;12542;50.924;4.516;2023-03-14T01:48:35;11.60;99.90
24408;DHT22;12542;50.924;4.516;2023-03-14T01:51:06;11.50;99.90
24408;DHT22;12542;50.924;4.516;2023-03-14T01:53:35;11.60;99.90
24408;DHT22;12542;50.924;4.516;2023-03-14T01:56:01;11.30;99.90
24408;DHT22;12542;50.924;4.516;2023-03-14T01:58:30;11.20;99.90
24408;DHT22;12542;50.924;4.516;2023-03-14T02:01:01;11.30;99.90
24408;DHT22;12542;50.924;4.516;2023-03-14T02:03:28;11.30;99.90
24408;DHT22;12542;50.924;4.516;2023-03-14T02:05:59;11.40;99.90
24408;DHT22;12542;50.924;4.516;2023-03-14T02:08:31;11.30;99.90
24408;DHT22;12542;50.924;4.516;2023-03-14T02:10:56;11.40;99.90
24408;DHT22;12542;50.924;4.516;2023-03-14T02:13:22;11.60;99.90
24408;DHT22;12542;50.924;4.516;2023-03-14T02:15:49;11.70;99.90
24408;DHT22;12542;50.924;4.516;2023-03-14T02:18:16;11.70;99.90
24408;DHT22;12542;50.924;4.516;2023-03-14T02:23:58;11.70;99.90
24408;DHT22;12542;50.924;4.516;2023-03-14T02:29:28;12.00;99.90
24408;DHT22;12542;50.924;4.516;2023-03-14T02:31:54;11.40;99.90
24408;DHT22;12542;50.924;4.516;2023-03-14T02:34:20;11.20;99.90
24408;DHT22;12542;50.924;4.516;2023-03-14T02:36:47;10.90;99.90
24408;DHT22;12542;50.924;4.516;2023-03-14T02:39:21;10.90;99.90
24408;DHT22;12542;50.924;4.516;2023-03-14T02:41:49;10.50;99.90
24408;DHT22;12542;50.924;4.516;2023-03-14T02:44:15;10.50;99.90
24408;DHT22;12542;50.924;4.516;2023-03-14T02:46:41;10.40;99.90
24408;DHT22;12542;50.924;4.516;2023-03-14T02:49:09;10.40;99.90
24408;DHT22;12542;50.924;4.516;2023-03-14T02:51:37;10.40;99.90
24408;DHT22;12542;50.924;4.516;2023-03-14T02:54:05;10.40;99.90
24408;DHT22;12542;50.924;4.516;2023-03-14T02:56:31;10.50;99.90
24408;DHT22;12542;50.924;4.516;2023-03-14T02:59:02;10.40;99.90
24408;DHT22;12542;50.924;4.516;2023-03-14T03:01:28;10.40;99.90
24408;DHT22;12542;50.924;4.516;2023-03-14T03:03:54;10.20;99.90
24408;DHT22;12542;50.924;4.516;2023-03-14T03:06:20;10.10;99.90
24408;DHT22;12542;50.924;4.516;2023-03-14T03:08:45;10.00;99.90
24408;DHT22;12542;50.924;4.516;2023-03-14T03:11:11;9.90;99.90
24408;DHT22;12542;50.924;4.516;2023-03-14T03:13:37;10.10;99.90
24408;DHT22;12542;50.924;4.516;2023-03-14T03:16:03;10.00;99.90
24408;DHT22;12542;50.924;4.516;2023-03-14T03:18:29;10.00;99.90
24408;DHT22;12542;50.924;4.516;2023-03-14T03:20:56;10.10;99.90
24408;DHT22;12542;50.924;4.516;2023-03-14T03:23:24;10.10;99.90
24408;DHT22;12542;50.924;4.516;2023-03-14T03:25:53;10.10;99.90
24408;DHT22;12542;50.924;4.516;2023-03-14T03:28:19;10.10;99.90
24408;DHT22;12542;50.924;4.516;2023-03-14T03:30:45;10.10;99.90
24408;DHT22;12542;50.924;4.516;2023-03-14T03:33:11;10.10;99.90
24408;DHT22;12542;50.924;4.516;2023-03-14T03:35:45;10.10;99.90
24408;DHT22;12542;50.924;4.516;2023-03-14T03:38:12;10.10;99.90
24408;DHT22;12542;50.924;4.516;2023-03-14T03:40:38;10.10;99.90
24408;DHT22;12542;50.924;4.516;2023-03-14T03:43:03;10.20;99.90
24408;DHT22;12542;50.924;4.516;2023-03-14T03:45:30;10.20;99.90
24408;DHT22;12542;50.924;4.516;2023-03-14T03:47:56;10.20;99.90
24408;DHT22;12542;50.924;4.516;2023-03-14T03:50:21;10.20;99.90
24408;DHT22;12542;50.924;4.516;2023-03-14T03:52:47;10.30;99.90
24408;DHT22;12542;50.924;4.516;2023-03-14T03:55:13;10.20;99.90
24408;DHT22;12542;50.924;4.516;2023-03-14T03:57:41;10.20;99.90
24408;DHT22;12542;50.924;4.516;2023-03-14T04:00:07;10.30;99.90
24408;DHT22;12542;50.924;4.516;2023-03-14T04:02:36;10.30;99.90
24408;DHT22;12542;50.924;4.516;2023-03-14T04:05:04;10.20;99.90
24408;DHT22;12542;50.924;4.516;2023-03-14T04:07:33;10.30;99.90
24408;DHT22;12542;50.924;4.516;2023-03-14T04:09:59;10.20;99.90
24408;DHT22;12542;50.924;4.516;2023-03-14T04:12:24;10.20;99.90
24408;DHT22;12542;50.924;4.516;2023-03-14T04:14:50;10.20;99.90
24408;DHT22;12542;50.924;4.516;2023-03-14T04:17:16;10.30;99.90
24408;DHT22;12542;50.924;4.516;2023-03-14T04:19:42;10.20;99.90
24408;DHT22;12542;50.924;4.516;2023-03-14T04:22:08;10.30;99.90
24408;DHT22;12542;50.924;4.516;2023-03-14T04:24:34;10.40;99.90
24408;DHT22;12542;50.924;4.516;2023-03-14T04:27:00;10.40;99.90
24408;DHT22;12542;50.924;4.516;2023-03-14T04:29:26;10.50;99.90
24408;DHT22;12542;50.924;4.516;2023-03-14T04:31:52;10.50;99.90
24408;DHT22;12542;50.924;4.516;2023-03-14T04:34:17;10.50;99.90
24408;DHT22;12542;50.924;4.516;2023-03-14T04:36:45;10.60;99.90
24408;DHT22;12542;50.924;4.516;2023-03-14T04:39:11;10.70;99.90
24408;DHT22;12542;50.924;4.516;2023-03-14T04:41:39;10.70;99.90
24408;DHT22;12542;50.924;4.516;2023-03-14T04:44:05;10.60;99.90
24408;DHT22;12542;50.924;4.516;2023-03-14T04:46:31;10.70;99.90
24408;DHT22;12542;50.924;4.516;2023-03-14T04:48:57;10.70;99.90
24408;DHT22;12542;50.924;4.516;2023-03-14T04:51:23;10.80;99.90
24408;DHT22;12542;50.924;4.516;2023-03-14T04:53:53;11.00;99.90
24408;DHT22;12542;50.924;4.516;2023-03-14T04:56:18;10.80;99.90
24408;DHT22;12542;50.924;4.516;2023-03-14T04:58:44;10.80;99.90
24408;DHT22;12542;50.924;4.516;2023-03-14T05:01:10;10.80;99.90
24408;DHT22;12542;50.924;4.516;2023-03-14T05:03:36;11.00;99.90
24408;DHT22;12542;50.924;4.516;2023-03-14T05:06:03;11.10;99.90
24408;DHT22;12542;50.924;4.516;2023-03-14T05:08:29;11.10;99.90
24408;DHT22;12542;50.924;4.516;2023-03-14T05:10:56;11.20;99.90
24408;DHT22;12542;50.924;4.516;2023-03-14T05:13:22;11.20;99.90
24408;DHT22;12542;50.924;4.516;2023-03-14T05:15:48;11.30;99.90
24408;DHT22;12542;50.924;4.516;2023-03-14T05:18:16;11.40;99.90
24408;DHT22;12542;50.924;4.516;2023-03-14T05:20:42;11.50;99.90
24408;DHT22;12542;50.924;4.516;2023-03-14T05:23:09;11.60;99.90
24408;DHT22;12542;50.924;4.516;2023-03-14T05:25:35;11.60;99.90
24408;DHT22;12542;50.924;4.516;2023-03-14T05:28:00;11.70;99.90
24408;DHT22;12542;50.924;4.516;2023-03-14T05:30:26;11.80;99.90
24408;DHT22;12542;50.924;4.516;2023-03-14T05:32:53;11.80;99.90
24408;DHT22;12542;50.924;4.516;2023-03-14T05:35:19;11.80;99.90
24408;DHT22;12542;50.924;4.516;2023-03-14T05:37:45;11.90;99.90
24408;DHT22;12542;50.924;4.516;2023-03-14T05:40:11;11.80;99.90
24408;DHT22;12542;50.924;4.516;2023-03-14T05:42:37;11.70;99.90
24408;DHT22;12542;50.924;4.516;2023-03-14T05:45:06;11.70;99.90
24408;DHT22;12542;50.924;4.516;2023-03-14T05:47:32;11.90;99.90
24408;DHT22;12542;50.924;4.516;2023-03-14T05:49:58;11.90;99.90
24408;DHT22;12542;50.924;4.516;2023-03-14T05:52:23;12.00;99.90
24408;DHT22;12542;50.924;4.516;2023-03-14T05:54:49;12.00;99.90
24408;DHT22;12542;50.924;4.516;2023-03-14T05:57:15;12.00;99.90
24408;DHT22;12542;50.924;4.516;2023-03-14T05:59:41;12.10;99.90
24408;DHT22;12542;50.924;4.516;2023-03-14T06:02:07;12.00;99.90
24408;DHT22;12542;50.924;4.516;2023-03-14T06:04:35;12.00;99.90
24408;DHT22;12542;50.924;4.516;2023-03-14T06:07:00;12.00;99.90
24408;DHT22;12542;50.924;4.516;2023-03-14T06:09:26;12.10;99.90
24408;DHT22;12542;50.924;4.516;2023-03-14T06:11:52;12.00;99.90
24408;DHT22;12542;50.924;4.516;2023-03-14T06:14:18;12.00;99.90
24408;DHT22;12542;50.924;4.516;2023-03-14T06:16:46;12.00;99.90
24408;DHT22;12542;50.924;4.516;2023-03-14T06:19:14;12.10;99.90
24408;DHT22;12542;50.924;4.516;2023-03-14T06:21:40;12.10;99.90
24408;DHT22;12542;50.924;4.516;2023-03-14T06:24:06;12.10;99.90
24408;DHT22;12542;50.924;4.516;2023-03-14T06:26:32;12.20;99.90
24408;DHT22;12542;50.924;4.516;2023-03-14T06:28:58;12.20;99.90
24408;DHT22;12542;50.924;4.516;2023-03-14T06:31:32;12.30;99.90
24408;DHT22;12542;50.924;4.516;2023-03-14T06:33:58;12.20;99.90
24408;DHT22;12542;50.924;4.516;2023-03-14T06:36:24;12.30;99.90
24408;DHT22;12542;50.924;4.516;2023-03-14T06:38:50;12.30;99.90
24408;DHT22;12542;50.924;4.516;2023-03-14T06:41:16;12.20;99.90
24408;DHT22;12542;50.924;4.516;2023-03-14T06:43:42;12.10;99.90
24408;DHT22;12542;50.924;4.516;2023-03-14T06:46:08;12.10;99.90
24408;DHT22;12542;50.924;4.516;2023-03-14T06:48:33;12.10;99.90
24408;DHT22;12542;50.924;4.516;2023-03-14T06:50:59;12.00;99.90
24408;DHT22;12542;50.924;4.516;2023-03-14T06:53:25;12.10;99.90
24408;DHT22;12542;50.924;4.516;2023-03-14T06:55:51;12.00;99.90
24408;DHT22;12542;50.924;4.516;2023-03-14T06:58:17;11.20;99.90
24408;DHT22;12542;50.924;4.516;2023-03-14T07:00:43;10.50;99.90
24408;DHT22;12542;50.924;4.516;2023-03-14T07:03:10;10.00;99.90
24408;DHT22;12542;50.924;4.516;2023-03-14T07:05:36;9.80;99.90
24408;DHT22;12542;50.924;4.516;2023-03-14T07:08:01;9.40;99.90
24408;DHT22;12542;50.924;4.516;2023-03-14T07:10:27;9.20;99.90
24408;DHT22;12542;50.924;4.516;2023-03-14T07:12:53;9.20;99.90
24408;DHT22;12542;50.924;4.516;2023-03-14T07:15:19;9.00;99.90
24408;DHT22;12542;50.924;4.516;2023-03-14T07:17:46;8.90;99.90
24408;DHT22;12542;50.924;4.516;2023-03-14T07:20:13;8.80;99.90
24408;DHT22;12542;50.924;4.516;2023-03-14T07:22:39;8.70;99.90
24408;DHT22;12542;50.924;4.516;2023-03-14T07:25:05;8.70;99.90
24408;DHT22;12542;50.924;4.516;2023-03-14T07:27:31;8.60;99.90
24408;DHT22;12542;50.924;4.516;2023-03-14T07:29:57;8.40;99.90
24408;DHT22;12542;50.924;4.516;2023-03-14T07:32:23;8.40;99.90
24408;DHT22;12542;50.924;4.516;2023-03-14T07:34:48;8.40;99.90
24408;DHT22;12542;50.924;4.516;2023-03-14T07:37:14;8.40;99.90
24408;DHT22;12542;50.924;4.516;2023-03-14T07:39:40;8.30;99.90
24408;DHT22;12542;50.924;4.516;2023-03-14T07:42:06;8.30;99.90
24408;DHT22;12542;50.924;4.516;2023-03-14T07:44:33;8.30;99.90
24408;DHT22;12542;50.924;4.516;2023-03-14T07:46:59;8.30;99.90
24408;DHT22;12542;50.924;4.516;2023-03-14T07:49:24;8.40;99.90
24408;DHT22;12542;50.924;4.516;2023-03-14T07:51:50;8.40;99.90
24408;DHT22;12542;50.924;4.516;2023-03-14T07:54:16;8.40;99.90
24408;DHT22;12542;50.924;4.516;2023-03-14T07:56:42;8.50;99.90
24408;DHT22;12542;50.924;4.516;2023-03-14T07:59:08;8.60;99.90
24408;DHT22;12542;50.924;4.516;2023-03-14T08:01:36;8.60;99.90
24408;DHT22;12542;50.924;4.516;2023-03-14T08:04:02;8.60;99.90
24408;DHT22;12542;50.924;4.516;2023-03-14T08:06:27;8.60;99.90
24408;DHT22;12542;50.924;4.516;2023-03-14T08:08:53;8.70;99.90
24408;DHT22;12542;50.924;4.516;2023-03-14T08:11:19;8.70;99.90
24408;DHT22;12542;50.924;4.516;2023-03-14T08:13:44;8.70;99.90
24408;DHT22;12542;50.924;4.516;2023-03-14T08:16:18;8.90;99.90
24408;DHT22;12542;50.924;4.516;2023-03-14T08:18:45;8.90;99.90
24408;DHT22;12542;50.924;4.516;2023-03-14T08:21:11;8.90;99.90
24408;DHT22;12542;50.924;4.516;2023-03-14T08:23:37;8.90;99.90
24408;DHT22;12542;50.924;4.516;2023-03-14T08:26:03;8.80;99.90
24408;DHT22;12542;50.924;4.516;2023-03-14T08:28:29;8.80;99.90
24408;DHT22;12542;50.924;4.516;2023-03-14T08:30:56;8.70;99.90
24408;DHT22;12542;50.924;4.516;2023-03-14T08:33:26;8.80;99.90
24408;DHT22;12542;50.924;4.516;2023-03-14T08:35:53;8.70;99.90
24408;DHT22;12542;50.924;4.516;2023-03-14T08:38:19;8.70;99.90
24408;DHT22;12542;50.924;4.516;2023-03-14T08:40:45;8.70;99.90
24408;DHT22;12542;50.924;4.516;2023-03-14T08:43:10;8.70;99.90
24408;DHT22;12542;50.924;4.516;2023-03-14T08:45:36;8.80;99.90
24408;DHT22;12542;50.924;4.516;2023-03-14T08:48:02;8.60;99.90
24408;DHT22;12542;50.924;4.516;2023-03-14T08:50:28;8.50;99.90
24408;DHT22;12542;50.924;4.516;2023-03-14T08:52:54;8.50;99.90
24408;DHT22;12542;50.924;4.516;2023-03-14T08:55:23;8.50;99.90
24408;DHT22;12542;50.924;4.516;2023-03-14T08:57:49;8.50;99.90
24408;DHT22;12542;50.924;4.516;2023-03-14T09:00:15;8.50;99.90
24408;DHT22;12542;50.924;4.516;2023-03-14T09:02:45;8.60;99.90
24408;DHT22;12542;50.924;4.516;2023-03-14T09:05:11;8.70;99.90
24408;DHT22;12542;50.924;4.516;2023-03-14T09:07:38;8.80;99.90
24408;DHT22;12542;50.924;4.516;2023-03-14T09:10:04;9.00;99.90
24408;DHT22;12542;50.924;4.516;2023-03-14T09:12:30;9.00;99.90
24408;DHT22;12542;50.924;4.516;2023-03-14T09:14:56;8.80;99.90
24408;DHT22;12542;50.924;4.516;2023-03-14T09:17:22;8.70;99.90
24408;DHT22;12542;50.924;4.516;2023-03-14T09:19:48;8.70;99.90
24408;DHT22;12542;50.924;4.516;2023-03-14T09:22:13;8.70;99.90
24408;DHT22;12542;50.924;4.516;2023-03-14T09:24:40;8.70;99.90
24408;DHT22;12542;50.924;4.516;2023-03-14T09:27:06;8.50;99.90
24408;DHT22;12542;50.924;4.516;2023-03-14T09:29:33;8.40;99.90
24408;DHT22;12542;50.924;4.516;2023-03-14T09:32:02;8.30;99.90
24408;DHT22;12542;50.924;4.516;2023-03-14T09:34:27;8.30;99.90
24408;DHT22;12542;50.924;4.516;2023-03-14T09:36:53;8.40;99.90
24408;DHT22;12542;50.924;4.516;2023-03-14T09:39:19;8.50;99.90
24408;DHT22;12542;50.924;4.516;2023-03-14T09:42:05;8.50;99.90
24408;DHT22;12542;50.924;4.516;2023-03-14T09:44:35;8.70;99.90
24408;DHT22;12542;50.924;4.516;2023-03-14T09:47:06;8.70;99.90
24408;DHT22;12542;50.924;4.516;2023-03-14T09:49:42;8.70;99.90
24408;DHT22;12542;50.924;4.516;2023-03-14T09:52:23;8.80;99.90
24408;DHT22;12542;50.924;4.516;2023-03-14T09:55:25;8.80;99.90
24408;DHT22;12542;50.924;4.516;2023-03-14T09:58:00;8.90;99.90
24408;DHT22;12542;50.924;4.516;2023-03-14T10:00:29;9.00;99.90
24408;DHT22;12542;50.924;4.516;2023-03-14T10:03:25;9.10;99.90
24408;DHT22;12542;50.924;4.516;2023-03-14T10:05:51;9.30;99.90
24408;DHT22;12542;50.924;4.516;2023-03-14T10:08:20;9.40;99.90
24408;DHT22;12542;50.924;4.516;2023-03-14T10:10:46;9.60;99.90
24408;DHT22;12542;50.924;4.516;2023-03-14T10:13:18;9.60;99.90
24408;DHT22;12542;50.924;4.516;2023-03-14T10:15:52;9.30;99.90
24408;DHT22;12542;50.924;4.516;2023-03-14T10:18:18;9.10;99.90
24408;DHT22;12542;50.924;4.516;2023-03-14T10:20:49;9.00;99.90
24408;DHT22;12542;50.924;4.516;2023-03-14T10:26:15;8.50;99.90
24408;DHT22;12542;50.924;4.516;2023-03-14T10:28:47;8.30;99.90
24408;DHT22;12542;50.924;4.516;2023-03-14T10:31:14;8.10;99.90
24408;DHT22;12542;50.924;4.516;2023-03-14T10:33:40;8.00;99.90
24408;DHT22;12542;50.924;4.516;2023-03-14T10:38:43;7.80;99.90
24408;DHT22;12542;50.924;4.516;2023-03-14T10:41:19;7.90;99.90
24408;DHT22;12542;50.924;4.516;2023-03-14T10:43:50;7.80;99.90
24408;DHT22;12542;50.924;4.516;2023-03-14T10:46:18;7.70;99.90
24408;DHT22;12542;50.924;4.516;2023-03-14T10:48:45;7.40;99.90
24408;DHT22;12542;50.924;4.516;2023-03-14T10:56:17;7.50;99.90
24408;DHT22;12542;50.924;4.516;2023-03-14T10:58:49;7.50;99.90
24408;DHT22;12542;50.924;4.516;2023-03-14T11:09:47;7.30;99.90
24408;DHT22;12542;50.924;4.516;2023-03-14T11:15:45;7.20;99.90
24408;DHT22;12542;50.924;4.516;2023-03-14T11:20:46;7.30;99.90
24408;DHT22;12542;50.924;4.516;2023-03-14T11:23:20;7.50;99.90
24408;DHT22;12542;50.924;4.516;2023-03-14T11:28:36;7.30;99.90
24408;DHT22;12542;50.924;4.516;2023-03-14T11:33:47;7.30;99.90
24408;DHT22;12542;50.924;4.516;2023-03-14T11:36:21;7.50;99.90
24408;DHT22;12542;50.924;4.516;2023-03-14T11:38:54;7.70;99.90
24408;DHT22;12542;50.924;4.516;2023-03-14T11:41:33;8.00;99.90
24408;DHT22;12542;50.924;4.516;2023-03-14T11:44:27;8.00;99.90
24408;DHT22;12542;50.924;4.516;2023-03-14T11:47:22;8.30;99.90
24408;DHT22;12542;50.924;4.516;2023-03-14T11:52:30;8.40;99.90
24408;DHT22;12542;50.924;4.516;2023-03-14T11:55:02;8.50;99.90
24408;DHT22;12542;50.924;4.516;2023-03-14T11:57:29;8.70;99.90
24408;DHT22;12542;50.924;4.516;2023-03-14T12:13:37;9.50;99.90
24408;DHT22;12542;50.924;4.516;2023-03-14T12:16:26;9.50;99.90
24408;DHT22;12542;50.924;4.516;2023-03-14T12:18:53;9.60;99.90
24408;DHT22;12542;50.924;4.516;2023-03-14T12:21:20;9.30;99.90
24408;DHT22;12542;50.924;4.516;2023-03-14T12:29:09;9.20;99.90
24408;DHT22;12542;50.924;4.516;2023-03-14T12:31:45;9.20;99.90
24408;DHT22;12542;50.924;4.516;2023-03-14T12:42:08;8.10;99.90
24408;DHT22;12542;50.924;4.516;2023-03-14T12:44:47;8.10;99.90
24408;DHT22;12542;50.924;4.516;2023-03-14T12:49:51;8.60;99.90
24408;DHT22;12542;50.924;4.516;2023-03-14T12:55:55;8.90;99.90
24408;DHT22;12542;50.924;4.516;2023-03-14T12:58:38;9.10;99.90
24408;DHT22;12542;50.924;4.516;2023-03-14T13:01:18;9.30;99.90
24408;DHT22;12542;50.924;4.516;2023-03-14T13:03:52;9.50;99.90
24408;DHT22;12542;50.924;4.516;2023-03-14T13:06:48;9.60;99.90
24408;DHT22;12542;50.924;4.516;2023-03-14T13:09:34;9.80;99.90
24408;DHT22;12542;50.924;4.516;2023-03-14T13:12:10;9.80;99.90
24408;DHT22;12542;50.924;4.516;2023-03-14T13:14:40;9.90;99.90
24408;DHT22;12542;50.924;4.516;2023-03-14T13:17:23;9.90;99.90
24408;DHT22;12542;50.924;4.516;2023-03-14T13:19:56;10.00;99.90
24408;DHT22;12542;50.924;4.516;2023-03-14T13:22:28;9.80;99.90
24408;DHT22;12542;50.924;4.516;2023-03-14T13:25:04;9.40;99.90
24408;DHT22;12542;50.924;4.516;2023-03-14T13:27:33;9.30;99.90
24408;DHT22;12542;50.924;4.516;2023-03-14T13:30:05;8.40;99.90
24408;DHT22;12542;50.924;4.516;2023-03-14T13:32:31;8.30;99.90
24408;DHT22;12542;50.924;4.516;2023-03-14T13:34:57;8.30;99.90
24408;DHT22;12542;50.924;4.516;2023-03-14T13:37:25;8.50;99.90
24408;DHT22;12542;50.924;4.516;2023-03-14T13:39:58;8.80;99.90
24408;DHT22;12542;50.924;4.516;2023-03-14T13:42:26;8.90;99.90
24408;DHT22;12542;50.924;4.516;2023-03-14T13:44:54;9.00;99.90
24408;DHT22;12542;50.924;4.516;2023-03-14T13:47:23;9.10;99.90
24408;DHT22;12542;50.924;4.516;2023-03-14T13:49:50;9.20;99.90
24408;DHT22;12542;50.924;4.516;2023-03-14T13:52:35;9.30;99.90
24408;DHT22;12542;50.924;4.516;2023-03-14T13:55:03;9.40;99.90
24408;DHT22;12542;50.924;4.516;2023-03-14T13:57:49;9.40;99.90
24408;DHT22;12542;50.924;4.516;2023-03-14T14:00:28;9.50;99.90
24408;DHT22;12542;50.924;4.516;2023-03-14T14:02:58;9.50;99.90
24408;DHT22;12542;50.924;4.516;2023-03-14T14:05:28;9.60;99.90
24408;DHT22;12542;50.924;4.516;2023-03-14T14:07:55;9.80;99.90
24408;DHT22;12542;50.924;4.516;2023-03-14T14:10:22;9.80;99.90
24408;DHT22;12542;50.924;4.516;2023-03-14T14:13:01;9.90;99.90
24408;DHT22;12542;50.924;4.516;2023-03-14T14:15:30;9.90;99.90
24408;DHT22;12542;50.924;4.516;2023-03-14T14:18:03;10.10;99.90
24408;DHT22;12542;50.924;4.516;2023-03-14T14:20:38;10.20;99.90
24408;DHT22;12542;50.924;4.516;2023-03-14T14:23:09;10.30;99.90
24408;DHT22;12542;50.924;4.516;2023-03-14T14:25:38;10.30;99.90
24408;DHT22;12542;50.924;4.516;2023-03-14T14:28:30;10.20;99.90
24408;DHT22;12542;50.924;4.516;2023-03-14T14:31:22;10.20;99.90
24408;DHT22;12542;50.924;4.516;2023-03-14T14:33:57;10.10;99.90
24408;DHT22;12542;50.924;4.516;2023-03-14T14:36:38;9.80;99.90
24408;DHT22;12542;50.924;4.516;2023-03-14T14:41:53;9.20;99.90
24408;DHT22;12542;50.924;4.516;2023-03-14T14:44:30;9.00;99.90
24408;DHT22;12542;50.924;4.516;2023-03-14T14:46:58;8.80;99.90
24408;DHT22;12542;50.924;4.516;2023-03-14T14:49:29;8.50;99.90
24408;DHT22;12542;50.924;4.516;2023-03-14T14:52:08;8.10;99.90
24408;DHT22;12542;50.924;4.516;2023-03-14T14:54:40;7.80;99.90
24408;DHT22;12542;50.924;4.516;2023-03-14T14:57:28;7.40;99.90
24408;DHT22;12542;50.924;4.516;2023-03-14T15:00:00;7.20;99.90
24408;DHT22;12542;50.924;4.516;2023-03-14T15:02:45;7.10;99.90
24408;DHT22;12542;50.924;4.516;2023-03-14T15:05:17;7.00;99.90
24408;DHT22;12542;50.924;4.516;2023-03-14T15:07:44;7.00;99.90
24408;DHT22;12542;50.924;4.516;2023-03-14T15:10:13;7.20;99.90
24408;DHT22;12542;50.924;4.516;2023-03-14T15:12:40;7.30;99.90
24408;DHT22;12542;50.924;4.516;2023-03-14T15:15:06;7.40;99.90
24408;DHT22;12542;50.924;4.516;2023-03-14T15:17:32;7.60;99.90
24408;DHT22;12542;50.924;4.516;2023-03-14T15:19:58;7.70;99.90
24408;DHT22;12542;50.924;4.516;2023-03-14T15:22:24;7.80;99.90
24408;DHT22;12542;50.924;4.516;2023-03-14T15:24:50;7.90;99.90
24408;DHT22;12542;50.924;4.516;2023-03-14T15:27:18;8.00;99.90
24408;DHT22;12542;50.924;4.516;2023-03-14T15:29:44;8.10;99.90
24408;DHT22;12542;50.924;4.516;2023-03-14T15:32:12;8.20;99.90
24408;DHT22;12542;50.924;4.516;2023-03-14T15:34:39;8.20;99.90
24408;DHT22;12542;50.924;4.516;2023-03-14T15:37:05;8.10;99.90
24408;DHT22;12542;50.924;4.516;2023-03-14T15:39:37;8.10;99.90
24408;DHT22;12542;50.924;4.516;2023-03-14T15:42:03;8.40;99.90
24408;DHT22;12542;50.924;4.516;2023-03-14T15:44:29;8.50;99.90
24408;DHT22;12542;50.924;4.516;2023-03-14T15:46:55;8.40;99.90
24408;DHT22;12542;50.924;4.516;2023-03-14T15:49:21;8.40;99.90
24408;DHT22;12542;50.924;4.516;2023-03-14T15:51:46;8.60;99.90
24408;DHT22;12542;50.924;4.516;2023-03-14T15:54:12;8.60;99.90
24408;DHT22;12542;50.924;4.516;2023-03-14T15:56:38;8.80;99.90
24408;DHT22;12542;50.924;4.516;2023-03-14T15:59:04;8.70;99.90
24408;DHT22;12542;50.924;4.516;2023-03-14T16:01:30;8.60;99.90
24408;DHT22;12542;50.924;4.516;2023-03-14T16:03:55;8.50;99.90
24408;DHT22;12542;50.924;4.516;2023-03-14T16:06:21;8.60;99.90
24408;DHT22;12542;50.924;4.516;2023-03-14T16:08:49;8.40;99.90
24408;DHT22;12542;50.924;4.516;2023-03-14T16:11:15;8.20;99.90
24408;DHT22;12542;50.924;4.516;2023-03-14T16:13:43;8.10;99.90
24408;DHT22;12542;50.924;4.516;2023-03-14T16:16:09;8.00;99.90
24408;DHT22;12542;50.924;4.516;2023-03-14T16:18:38;8.00;99.90
24408;DHT22;12542;50.924;4.516;2023-03-14T16:21:12;8.10;99.90
24408;DHT22;12542;50.924;4.516;2023-03-14T16:23:38;8.00;99.90
24408;DHT22;12542;50.924;4.516;2023-03-14T16:26:09;8.00;99.90
24408;DHT22;12542;50.924;4.516;2023-03-14T16:28:35;7.90;99.90
24408;DHT22;12542;50.924;4.516;2023-03-14T16:31:07;7.70;99.90
24408;DHT22;12542;50.924;4.516;2023-03-14T16:33:35;7.60;99.90
24408;DHT22;12542;50.924;4.516;2023-03-14T16:36:02;7.60;99.90
24408;DHT22;12542;50.924;4.516;2023-03-14T16:38:34;7.60;99.90
24408;DHT22;12542;50.924;4.516;2023-03-14T16:41:16;7.80;99.90
24408;DHT22;12542;50.924;4.516;2023-03-14T16:43:45;7.90;99.90
24408;DHT22;12542;50.924;4.516;2023-03-14T16:46:14;8.00;99.90
24408;DHT22;12542;50.924;4.516;2023-03-14T16:48:41;7.90;99.90
24408;DHT22;12542;50.924;4.516;2023-03-14T16:51:07;7.80;99.90
24408;DHT22;12542;50.924;4.516;2023-03-14T16:53:34;7.70;99.90
24408;DHT22;12542;50.924;4.516;2023-03-14T16:56:00;7.70;99.90
24408;DHT22;12542;50.924;4.516;2023-03-14T16:58:26;7.70;99.90
24408;DHT22;12542;50.924;4.516;2023-03-14T17:00:52;7.70;99.90
24408;DHT22;12542;50.924;4.516;2023-03-14T17:03:20;7.80;99.90
24408;DHT22;12542;50.924;4.516;2023-03-14T17:05:48;7.80;99.90
24408;DHT22;12542;50.924;4.516;2023-03-14T17:08:16;7.80;99.90
24408;DHT22;12542;50.924;4.516;2023-03-14T17:10:42;7.80;99.90